createdAt,value
2018-05-16T00:02:17.511Z,58.05
2018-05-16T00:04:44.933Z,58.85
2018-05-16T00:07:12.350Z,59.70
2018-05-16T00:09:39.807Z,61.16
2018-05-16T00:12:08.146Z,62.21
2018-05-16T00:14:35.598Z,62.97
2018-05-16T00:17:03.040Z,63.58
2018-05-16T00:19:30.502Z,63.33
2018-05-16T00:22:02.087Z,63.51
2018-05-16T00:24:29.541Z,63.67
2018-05-16T00:26:56.970Z,63.45
2018-05-16T00:29:24.442Z,63.21
2018-05-16T00:31:51.926Z,63.13
2018-05-16T00:34:19.392Z,63.15
2018-05-16T00:36:47.826Z,63.10
2018-05-16T00:39:15.249Z,63.65
2018-05-16T00:41:42.966Z,64.31
2018-05-16T00:44:10.400Z,63.95
2018-05-16T00:46:37.857Z,64.26
2018-05-16T00:49:06.272Z,64.32
2018-05-16T00:51:33.706Z,64.25
2018-05-16T00:54:01.129Z,64.01
2018-05-16T00:56:28.585Z,63.40
2018-05-16T00:58:56.016Z,63.57
2018-05-16T01:01:23.458Z,63.47
2018-05-16T01:03:50.894Z,63.45
2018-05-16T01:06:18.351Z,63.49
2018-05-16T01:08:45.787Z,63.90
2018-05-16T01:11:13.233Z,64.31
2018-05-16T01:13:40.661Z,65.36
2018-05-16T01:16:08.107Z,66.17
2018-05-16T01:18:35.541Z,66.28
2018-05-16T01:21:03.001Z,66.56
2018-05-16T01:23:30.433Z,66.43
2018-05-16T01:25:57.853Z,66.42
2018-05-16T01:28:25.938Z,66.65
2018-05-16T01:30:53.358Z,66.70
2018-05-16T01:33:20.809Z,66.64
2018-05-16T01:35:48.232Z,67.25
2018-05-16T01:38:15.688Z,67.24
2018-05-16T01:40:44.050Z,67.31
2018-05-16T01:43:11.506Z,67.20
2018-05-16T01:45:38.934Z,66.76
2018-05-16T01:48:09.737Z,66.50
2018-05-16T01:50:37.158Z,66.64
2018-05-16T01:53:04.610Z,66.20
2018-05-16T01:55:32.038Z,65.62
2018-05-16T01:57:59.495Z,65.97
2018-05-16T02:00:26.930Z,65.71
2018-05-16T02:02:54.373Z,65.91
2018-05-16T02:05:21.830Z,65.92
2018-05-16T02:07:50.182Z,66.19
2018-05-16T02:10:17.642Z,65.95
2018-05-16T02:12:45.070Z,65.68
2018-05-16T02:15:12.525Z,65.50
2018-05-16T02:17:39.950Z,65.60
2018-05-16T02:20:07.427Z,65.59
2018-05-16T02:22:34.861Z,65.63
2018-05-16T02:25:03.321Z,66.18
2018-05-16T02:27:30.742Z,66.64
2018-05-16T02:29:58.192Z,66.12
2018-05-16T02:32:25.630Z,65.72
2018-05-16T02:34:53.085Z,65.92
2018-05-16T02:37:20.524Z,65.33
2018-05-16T02:39:47.990Z,65.04
2018-05-16T02:44:53.773Z,64.86
2018-05-16T02:47:21.198Z,64.96
2018-05-16T02:49:48.618Z,65.26
2018-05-16T02:52:16.063Z,65.27
2018-05-16T02:54:43.500Z,65.26
2018-05-16T02:57:10.977Z,65.22
2018-05-16T02:59:38.406Z,64.85
2018-05-16T03:02:05.850Z,65.11
2018-05-16T03:04:33.269Z,64.67
2018-05-16T03:07:00.726Z,63.71
2018-05-16T03:09:28.143Z,63.36
2018-05-16T03:11:55.594Z,62.39
2018-05-16T03:14:23.015Z,62.29
2018-05-16T03:16:50.484Z,61.32
2018-05-16T03:19:17.946Z,60.84
2018-05-16T03:21:45.402Z,59.57
2018-05-16T03:24:12.825Z,59.87
2018-05-16T03:26:40.283Z,58.77
2018-05-16T03:29:07.714Z,58.23
2018-05-16T03:31:35.164Z,57.55
2018-05-16T03:34:02.595Z,57.00
2018-05-16T03:36:30.079Z,57.52
2018-05-16T03:38:57.517Z,56.43
2018-05-16T03:41:24.948Z,55.95
2018-05-16T03:43:52.409Z,56.73
2018-05-16T03:46:19.829Z,56.98
2018-05-16T03:48:47.289Z,57.04
2018-05-16T03:51:14.841Z,56.43
2018-05-16T03:53:42.300Z,56.26
2018-05-16T03:56:10.653Z,56.48
2018-05-16T03:58:49.964Z,56.20
2018-05-16T04:01:29.157Z,56.16
2018-05-16T04:04:03.273Z,55.02
2018-05-16T04:06:30.731Z,55.35
2018-05-16T04:08:58.293Z,55.07
2018-05-16T04:11:25.754Z,54.94
2018-05-16T04:13:53.202Z,54.75
2018-05-16T04:16:21.545Z,54.10
2018-05-16T04:18:49.014Z,54.91
2018-05-16T04:21:16.440Z,54.08
2018-05-16T04:23:43.889Z,54.50
2018-05-16T04:26:11.313Z,53.55
2018-05-16T04:28:38.773Z,54.30
2018-05-16T04:31:06.189Z,53.50
2018-05-16T04:33:33.609Z,53.88
2018-05-16T04:36:01.061Z,53.57
2018-05-16T04:38:28.477Z,53.46
2018-05-16T04:40:55.926Z,53.59
2018-05-16T04:43:23.346Z,53.77
2018-05-16T04:45:50.862Z,53.54
2018-05-16T04:48:18.278Z,53.56
2018-05-16T04:50:45.723Z,51.02
2018-05-16T04:53:13.145Z,50.16
2018-05-16T04:55:40.594Z,49.68
2018-05-16T04:58:08.017Z,49.68
2018-05-16T05:00:35.454Z,49.89
2018-05-16T05:03:02.873Z,50.31
2018-05-16T05:05:30.321Z,49.71
2018-05-16T05:07:57.742Z,50.83
2018-05-16T05:10:25.206Z,50.25
2018-05-16T05:12:52.633Z,49.35
2018-05-16T05:15:21.030Z,49.20
2018-05-16T05:17:48.469Z,49.04
2018-05-16T05:20:15.889Z,49.05
2018-05-16T05:22:43.341Z,50.04
2018-05-16T05:25:10.758Z,48.54
2018-05-16T05:27:38.201Z,50.12
2018-05-16T05:30:05.642Z,51.17
2018-05-16T05:32:33.105Z,50.14
2018-05-16T05:35:00.522Z,50.31
2018-05-16T05:37:27.979Z,49.50
2018-05-16T05:39:56.409Z,47.61
2018-05-16T05:42:24.773Z,46.52
2018-05-16T05:44:52.204Z,45.62
2018-05-16T05:47:19.641Z,45.43
2018-05-16T05:49:48.077Z,45.21
2018-05-16T05:52:15.519Z,45.26
2018-05-16T05:54:42.933Z,45.32
2018-05-16T05:57:10.377Z,44.95
2018-05-16T05:59:37.794Z,44.00
2018-05-16T06:02:05.247Z,44.53
2018-05-16T06:04:34.599Z,44.42
2018-05-16T06:07:02.937Z,44.73
2018-05-16T06:09:30.387Z,44.17
2018-05-16T06:11:57.799Z,43.78
2018-05-16T06:14:26.253Z,42.69
2018-05-16T06:16:53.678Z,43.00
2018-05-16T06:19:21.127Z,41.92
2018-05-16T06:21:48.537Z,41.89
2018-05-16T06:24:15.994Z,42.64
2018-05-16T06:26:43.418Z,42.19
2018-05-16T06:29:11.775Z,42.31
2018-05-16T06:31:39.186Z,41.02
2018-05-16T06:34:06.635Z,40.50
2018-05-16T06:36:34.055Z,39.34
2018-05-16T06:39:01.516Z,40.23
2018-05-16T06:41:28.932Z,39.61
2018-05-16T06:43:56.348Z,39.41
2018-05-16T06:46:23.817Z,38.29
2018-05-16T06:48:51.230Z,38.65
2018-05-16T06:51:18.669Z,38.91
2018-05-16T06:53:51.152Z,38.81
2018-05-16T06:56:18.600Z,39.78
2018-05-16T06:58:49.242Z,39.44
2018-05-16T07:01:16.737Z,40.25
2018-05-16T07:03:44.193Z,40.08
2018-05-16T07:06:11.645Z,40.41
2018-05-16T07:08:39.105Z,40.51
2018-05-16T07:11:06.562Z,40.92
2018-05-16T07:13:34.118Z,40.41
2018-05-16T07:16:01.496Z,41.68
2018-05-16T07:18:29.822Z,41.80
2018-05-16T07:20:57.271Z,41.96
2018-05-16T07:23:24.690Z,43.45
2018-05-16T07:25:52.226Z,42.73
2018-05-16T07:28:19.674Z,42.45
2018-05-16T07:30:47.154Z,43.06
2018-05-16T07:33:14.601Z,43.54
2018-05-16T07:35:42.058Z,43.02
2018-05-16T07:38:09.522Z,42.80
2018-05-16T07:40:36.980Z,42.74
2018-05-16T07:43:04.437Z,43.96
2018-05-16T07:45:31.875Z,44.42
2018-05-16T07:47:59.329Z,45.02
2018-05-16T07:50:28.732Z,45.27
2018-05-16T07:52:56.205Z,44.38
2018-05-16T07:55:23.629Z,44.22
2018-05-16T07:57:51.113Z,44.07
2018-05-16T08:00:18.539Z,44.02
2018-05-16T08:02:45.986Z,43.94
2018-05-16T08:05:13.413Z,43.71
2018-05-16T08:07:41.859Z,42.72
2018-05-16T08:10:10.282Z,42.50
2018-05-16T08:12:37.669Z,43.15
2018-05-16T08:15:05.088Z,42.80
2018-05-16T08:17:32.508Z,43.55
2018-05-16T08:20:00.069Z,44.06
2018-05-16T08:22:27.477Z,43.86
2018-05-16T08:24:55.925Z,41.91
2018-05-16T08:27:23.337Z,41.43
2018-05-16T08:29:50.789Z,41.72
2018-05-16T08:32:18.221Z,41.12
2018-05-16T08:34:45.673Z,41.63
2018-05-16T08:37:13.192Z,42.96
2018-05-16T08:39:40.637Z,44.26
2018-05-16T08:42:08.057Z,44.61
2018-05-16T08:44:35.522Z,45.52
2018-05-16T08:47:02.945Z,46.00
2018-05-16T08:49:31.350Z,45.63
2018-05-16T08:51:58.857Z,45.49
2018-05-16T08:54:26.290Z,44.47
2018-05-16T08:56:53.730Z,43.81
2018-05-16T08:59:22.098Z,42.90
2018-05-16T09:01:49.593Z,41.61
2018-05-16T09:04:17.054Z,42.62
2018-05-16T09:06:44.497Z,42.09
2018-05-16T09:09:12.065Z,41.84
2018-05-16T09:11:39.521Z,41.08
2018-05-16T09:14:06.941Z,42.18
2018-05-16T09:16:34.396Z,43.88
2018-05-16T09:19:01.812Z,45.47
2018-05-16T09:21:29.257Z,43.58
2018-05-16T09:23:56.736Z,43.65
2018-05-16T09:26:24.173Z,43.23
2018-05-16T09:28:51.589Z,42.65
2018-05-16T09:31:19.009Z,41.92
2018-05-16T09:33:46.461Z,41.34
2018-05-16T09:36:13.869Z,41.03
2018-05-16T09:38:41.317Z,40.39
2018-05-16T09:41:08.741Z,41.96
2018-05-16T09:43:37.206Z,40.32
2018-05-16T09:46:04.713Z,40.88
2018-05-16T09:48:32.078Z,40.50
2018-05-16T09:50:59.550Z,41.35
2018-05-16T09:53:27.113Z,40.56
2018-05-16T09:55:54.538Z,40.97
2018-05-16T09:58:21.990Z,41.41
2018-05-16T10:00:49.409Z,42.02
2018-05-16T10:03:16.854Z,41.87
2018-05-16T10:05:44.274Z,41.54
2018-05-16T10:08:11.726Z,42.74
2018-05-16T10:10:39.151Z,43.83
2018-05-16T10:13:06.577Z,44.66
2018-05-16T10:15:34.030Z,44.96
2018-05-16T10:18:01.450Z,44.92
2018-05-16T10:20:28.893Z,45.20
2018-05-16T10:22:56.325Z,43.09
2018-05-16T10:25:25.781Z,42.76
2018-05-16T10:27:53.202Z,43.90
2018-05-16T10:30:20.649Z,43.43
2018-05-16T10:32:48.074Z,43.39
2018-05-16T10:35:15.521Z,43.00
2018-05-16T10:37:42.946Z,43.08
2018-05-16T10:40:10.385Z,42.61
2018-05-16T10:42:37.889Z,42.35
2018-05-16T10:45:05.538Z,42.16
2018-05-16T10:47:32.961Z,42.17
2018-05-16T10:50:01.297Z,41.98
2018-05-16T10:52:28.734Z,41.36
2018-05-16T10:54:56.290Z,40.93
2018-05-16T10:57:23.742Z,41.53
2018-05-16T10:59:51.171Z,41.03
2018-05-16T11:02:18.657Z,41.44
2018-05-16T11:04:46.086Z,41.48
2018-05-16T11:07:14.481Z,41.97
2018-05-16T11:09:41.905Z,41.06
2018-05-16T11:12:09.345Z,40.64
2018-05-16T11:14:36.761Z,40.45
2018-05-16T11:17:04.205Z,39.56
2018-05-16T11:19:32.593Z,38.83
2018-05-16T11:22:00.039Z,38.85
2018-05-16T11:24:27.468Z,38.06
2018-05-16T11:26:54.911Z,37.63
2018-05-16T11:29:22.422Z,38.73
2018-05-16T11:31:49.873Z,37.13
2018-05-16T11:34:17.299Z,36.83
2018-05-16T11:36:44.742Z,34.86
2018-05-16T11:39:12.250Z,33.70
2018-05-16T11:41:40.669Z,31.62
2018-05-16T11:44:08.090Z,30.93
2018-05-16T11:46:35.528Z,30.77
2018-05-16T11:49:04.225Z,29.96
2018-05-16T11:51:31.366Z,30.28
2018-05-16T11:53:58.838Z,30.13
2018-05-16T11:56:26.258Z,31.60
2018-05-16T11:58:54.768Z,31.22
2018-05-16T12:01:22.241Z,31.97
2018-05-16T12:03:51.625Z,31.53
2018-05-16T12:06:19.483Z,31.51
2018-05-16T12:08:46.930Z,31.58
2018-05-16T12:11:14.355Z,31.18
2018-05-16T12:13:42.716Z,31.61
2018-05-16T12:16:10.133Z,32.72
2018-05-16T12:18:38.474Z,31.65
2018-05-16T12:21:05.890Z,31.58
2018-05-16T12:23:33.337Z,31.60
2018-05-16T12:26:00.765Z,32.59
2018-05-16T12:28:28.242Z,30.12
2018-05-16T12:30:55.659Z,28.79
2018-05-16T12:33:23.117Z,29.18
2018-05-16T12:35:50.534Z,30.28
2018-05-16T12:38:17.956Z,30.09
2018-05-16T12:40:45.415Z,32.18
2018-05-16T12:43:17.804Z,33.02
2018-05-16T12:45:45.249Z,33.37
2018-05-16T12:48:12.678Z,33.31
2018-05-16T12:50:45.905Z,32.52
2018-05-16T12:53:14.289Z,30.90
2018-05-16T12:55:41.786Z,29.91
2018-05-16T12:58:09.162Z,29.96
2018-05-16T13:00:37.570Z,31.00
2018-05-16T13:03:05.926Z,30.15
2018-05-16T13:05:33.377Z,31.10
2018-05-16T13:08:00.866Z,32.41
2018-05-16T13:10:28.425Z,32.35
2018-05-16T13:12:55.886Z,32.47
2018-05-16T13:15:23.337Z,33.10
2018-05-16T13:17:50.899Z,33.53
2018-05-16T13:20:19.143Z,33.14
2018-05-16T13:22:46.748Z,33.97
2018-05-16T13:25:14.177Z,34.47
2018-05-16T13:27:41.750Z,33.76
2018-05-16T13:30:09.166Z,33.57
2018-05-16T13:32:36.622Z,34.01
2018-05-16T13:35:04.116Z,33.20
2018-05-16T13:37:31.573Z,32.58
2018-05-16T13:39:59.007Z,32.33
2018-05-16T13:42:26.484Z,32.40
2018-05-16T13:44:53.949Z,31.62
2018-05-16T13:47:21.385Z,33.29
2018-05-16T13:49:48.887Z,33.64
2018-05-16T13:52:16.329Z,34.34
2018-05-16T13:54:43.777Z,35.12
2018-05-16T13:57:11.192Z,35.82
2018-05-16T13:59:38.693Z,37.15
2018-05-16T14:02:06.105Z,37.68
2018-05-16T14:04:33.563Z,38.45
2018-05-16T14:07:01.055Z,38.50
2018-05-16T14:09:28.623Z,38.22
2018-05-16T14:11:56.054Z,36.05
2018-05-16T14:14:23.494Z,36.95
2018-05-16T14:16:50.924Z,38.14
2018-05-16T14:19:18.354Z,34.15
2018-05-16T14:21:45.793Z,26.65
2018-05-16T14:24:13.217Z,21.38
2018-05-16T14:26:40.668Z,19.66
2018-05-16T14:29:08.157Z,21.17
2018-05-16T14:31:35.614Z,22.20
2018-05-16T14:34:03.043Z,22.37
2018-05-16T14:36:30.552Z,23.35
2018-05-16T14:38:57.976Z,19.67
2018-05-16T14:41:25.422Z,16.55
2018-05-16T14:43:53.794Z,15.26
2018-05-16T14:46:21.242Z,15.61
2018-05-16T14:48:48.750Z,13.54
2018-05-16T14:51:16.243Z,10.63
2018-05-16T14:53:44.671Z,9.22
2018-05-16T14:56:12.120Z,8.24
2018-05-16T14:58:39.574Z,7.85
2018-05-16T15:01:06.982Z,7.97
2018-05-16T15:03:34.420Z,7.61
2018-05-16T15:06:01.849Z,7.06
2018-05-16T15:08:29.317Z,11.97
2018-05-16T15:10:56.773Z,17.46
2018-05-16T15:13:24.294Z,21.49
2018-05-16T15:15:51.798Z,20.53
2018-05-16T15:18:19.382Z,18.46
2018-05-16T15:20:46.802Z,14.72
2018-05-16T15:23:14.218Z,16.80
2018-05-16T15:25:41.661Z,21.83
2018-05-16T15:28:09.171Z,24.99
2018-05-16T15:30:36.642Z,26.52
2018-05-16T15:33:04.060Z,27.76
2018-05-16T15:35:31.502Z,28.91
2018-05-16T15:37:58.917Z,30.52
2018-05-16T15:40:26.465Z,31.64
2018-05-16T15:42:53.875Z,32.09
2018-05-16T15:45:21.309Z,32.25
2018-05-16T15:47:48.722Z,31.86
2018-05-16T15:50:16.177Z,32.15
2018-05-16T15:52:43.637Z,32.68
2018-05-16T15:55:11.358Z,32.20
2018-05-16T15:57:38.773Z,31.82
2018-05-16T16:00:06.324Z,32.03
2018-05-16T16:02:33.769Z,32.06
2018-05-16T16:05:01.187Z,32.22
2018-05-16T16:07:28.629Z,31.75
2018-05-16T16:09:56.038Z,31.52
2018-05-16T16:12:23.485Z,30.62
2018-05-16T16:14:50.897Z,30.37
2018-05-16T16:17:18.345Z,29.16
2018-05-16T16:19:45.859Z,30.03
2018-05-16T16:22:14.246Z,31.09
2018-05-16T16:24:42.682Z,30.13
2018-05-16T16:27:10.121Z,29.35
2018-05-16T16:29:37.534Z,28.49
2018-05-16T16:32:04.981Z,28.92
2018-05-16T16:34:32.502Z,28.09
2018-05-16T16:37:00.008Z,27.49
2018-05-16T16:39:28.385Z,26.46
2018-05-16T16:41:55.827Z,25.79
2018-05-16T16:44:24.191Z,25.89
2018-05-16T16:46:51.674Z,26.68
2018-05-16T16:49:19.136Z,27.03
2018-05-16T16:51:46.589Z,24.47
2018-05-16T16:54:14.049Z,25.11
2018-05-16T16:56:41.465Z,19.93
2018-05-16T16:59:08.905Z,17.22
2018-05-16T17:01:38.339Z,14.63
2018-05-16T17:04:05.825Z,15.50
2018-05-16T17:06:33.378Z,12.19
2018-05-16T17:09:00.818Z,11.85
2018-05-16T17:11:28.241Z,11.19
2018-05-16T17:13:55.694Z,11.27
2018-05-16T17:16:23.190Z,12.46
2018-05-16T17:18:50.535Z,16.50
2018-05-16T17:21:18.009Z,21.30
2018-05-16T17:23:45.470Z,23.93
2018-05-16T17:26:12.918Z,25.27
2018-05-16T17:28:40.331Z,26.02
2018-05-16T17:31:07.837Z,26.90
2018-05-16T17:33:35.247Z,29.59
2018-05-16T17:36:02.724Z,30.56
2018-05-16T17:38:30.133Z,31.36
2018-05-16T17:40:57.591Z,32.91
2018-05-16T17:43:24.997Z,34.89
2018-05-16T17:45:52.445Z,35.14
2018-05-16T17:48:19.857Z,35.88
2018-05-16T17:50:47.339Z,36.46
2018-05-16T17:53:14.850Z,37.17
2018-05-16T17:55:42.313Z,37.69
2018-05-16T17:58:09.728Z,37.54
2018-05-16T18:00:37.159Z,38.92
2018-05-16T18:03:04.582Z,39.58
2018-05-16T18:05:32.131Z,40.10
2018-05-16T18:08:00.519Z,40.47
2018-05-16T18:10:27.979Z,40.73
2018-05-16T18:16:05.190Z,41.96
2018-05-16T18:18:33.554Z,42.38
2018-05-16T18:21:00.987Z,42.97
2018-05-16T18:23:28.425Z,43.44
2018-05-16T18:25:55.843Z,43.30
2018-05-16T18:28:23.281Z,43.67
2018-05-16T18:30:50.739Z,43.64
2018-05-16T18:33:18.190Z,43.78
2018-05-16T18:35:45.606Z,44.08
2018-05-16T18:38:13.050Z,44.68
2018-05-16T18:40:40.560Z,44.44
2018-05-16T18:43:08.049Z,45.26
2018-05-16T18:45:36.465Z,45.35
2018-05-16T18:48:03.879Z,45.19
2018-05-16T18:50:32.332Z,45.20
2018-05-16T18:52:59.746Z,45.29
2018-05-16T18:55:27.189Z,45.42
2018-05-16T18:57:54.598Z,45.95
2018-05-16T19:00:22.045Z,46.02
2018-05-16T19:02:49.473Z,45.52
2018-05-16T19:05:16.974Z,46.01
2018-05-16T19:07:44.398Z,46.03
2018-05-16T19:10:11.889Z,46.07
2018-05-16T19:12:39.301Z,45.51
2018-05-16T19:15:06.812Z,45.58
2018-05-16T19:17:34.217Z,45.29
2018-05-16T19:20:01.670Z,45.83
2018-05-16T19:22:29.086Z,46.57
2018-05-16T19:24:56.553Z,46.45
2018-05-16T19:27:23.965Z,46.94
2018-05-16T19:29:51.453Z,47.07
2018-05-16T19:32:18.926Z,47.51
2018-05-16T19:34:46.356Z,47.18
2018-05-16T19:37:13.904Z,47.58
2018-05-16T19:39:41.364Z,47.97
2018-05-16T19:42:08.838Z,47.67
2018-05-16T19:44:36.276Z,47.94
2018-05-16T19:47:03.762Z,48.41
2018-05-16T19:49:31.187Z,48.80
2018-05-16T19:52:00.622Z,48.70
2018-05-16T19:54:29.060Z,48.80
2018-05-16T19:56:56.510Z,48.87
2018-05-16T19:59:23.948Z,48.86
2018-05-16T20:01:51.403Z,49.72
2018-05-16T20:04:18.813Z,49.26
2018-05-16T20:06:46.252Z,49.35
2018-05-16T20:09:15.622Z,49.85
2018-05-16T20:11:43.077Z,50.00
2018-05-16T20:14:10.491Z,50.22
2018-05-16T20:16:37.898Z,50.41
2018-05-16T20:19:05.358Z,50.69
2018-05-16T20:21:32.838Z,50.49
2018-05-16T20:24:00.285Z,51.03
2018-05-16T20:26:27.750Z,51.30
2018-05-16T20:28:55.201Z,51.13
2018-05-16T20:31:22.626Z,51.24
2018-05-16T20:33:50.066Z,51.19
2018-05-16T20:36:17.473Z,51.64
2018-05-16T20:38:45.411Z,51.47
2018-05-16T20:41:12.827Z,51.67
2018-05-16T20:43:40.271Z,51.70
2018-05-16T20:46:07.715Z,52.04
2018-05-16T20:48:35.157Z,52.18
2018-05-16T20:51:02.627Z,51.79
2018-05-16T20:53:30.069Z,51.78
2018-05-16T20:55:57.490Z,52.13
2018-05-16T20:58:24.991Z,52.09
2018-05-16T21:00:52.417Z,52.91
2018-05-16T21:03:19.837Z,53.16
2018-05-16T21:05:47.278Z,53.89
2018-05-16T21:08:14.718Z,54.20
2018-05-16T21:10:42.158Z,54.65
2018-05-16T21:13:09.630Z,55.48
2018-05-16T21:15:37.089Z,55.26
2018-05-16T21:18:04.508Z,55.65
2018-05-16T21:20:31.981Z,55.43
2018-05-16T21:22:59.394Z,55.55
2018-05-16T21:25:26.910Z,56.02
2018-05-16T21:27:54.329Z,55.93
2018-05-16T21:30:21.771Z,56.70
2018-05-16T21:32:49.177Z,57.09
2018-05-16T21:35:17.234Z,57.51
2018-05-16T21:37:44.711Z,56.99
2018-05-16T21:40:12.153Z,57.47
2018-05-16T21:42:39.590Z,56.80
2018-05-16T21:45:07.081Z,57.72
2018-05-16T21:47:34.572Z,57.61
2018-05-16T21:50:02.005Z,57.35
2018-05-16T21:52:29.486Z,57.99
2018-05-16T21:54:56.899Z,58.40
2018-05-16T21:57:24.391Z,59.36
2018-05-16T21:59:51.810Z,60.58
2018-05-16T22:02:19.255Z,61.69
2018-05-16T22:04:46.665Z,61.65
2018-05-16T22:07:14.109Z,62.41
2018-05-16T22:09:41.529Z,63.30
2018-05-16T22:12:09.001Z,63.79
2018-05-16T22:14:36.433Z,63.69
2018-05-16T22:17:03.873Z,64.20
2018-05-16T22:19:31.290Z,64.24
2018-05-16T22:21:58.779Z,64.48
2018-05-16T22:24:26.198Z,64.25
2018-05-16T22:26:53.687Z,64.97
2018-05-16T22:29:21.202Z,64.12
2018-05-16T22:31:54.197Z,64.59
2018-05-16T22:34:28.181Z,65.18
2018-05-16T22:37:01.313Z,65.02
2018-05-16T22:39:34.390Z,64.71
2018-05-16T22:42:07.386Z,65.17
2018-05-16T22:44:39.369Z,65.83
2018-05-16T22:47:06.873Z,65.67
2018-05-16T22:49:34.289Z,66.25
2018-05-16T22:52:01.708Z,66.74
2018-05-16T22:54:29.149Z,67.02
2018-05-16T22:56:56.610Z,66.53
2018-05-16T22:59:24.093Z,66.33
2018-05-16T23:01:51.472Z,66.00
2018-05-16T23:04:19.890Z,66.28
2018-05-16T23:06:47.304Z,67.77
2018-05-16T23:09:14.743Z,68.42
2018-05-16T23:11:42.163Z,68.42
2018-05-16T23:14:09.601Z,68.50
2018-05-16T23:16:37.078Z,68.48
2018-05-16T23:19:04.539Z,68.51
2018-05-16T23:21:31.995Z,68.67
2018-05-16T23:23:59.413Z,69.36
2018-05-16T23:26:26.907Z,68.96
2018-05-16T23:28:54.330Z,68.29
2018-05-16T23:31:21.817Z,68.49
2018-05-16T23:33:49.275Z,68.86
2018-05-16T23:36:16.737Z,69.76
2018-05-16T23:38:44.190Z,69.24
2018-05-16T23:44:02.724Z,69.85
2018-05-16T23:46:30.169Z,70.62
2018-05-16T23:48:57.603Z,69.78
2018-05-16T23:51:25.046Z,70.14
2018-05-16T23:53:52.461Z,71.40
2018-05-16T23:56:19.937Z,70.69
2018-05-16T23:58:47.362Z,71.35
